sensor_id;sensor_type;location;lat;lon;timestamp;pressure;altitude;pressure_sealevel;temperature;humidity
59789;BME280;47353;51.614;5.530;2023-02-11T00:00:03;103351.91;;;5.59;100.00
59789;BME280;47353;51.614;5.530;2023-02-11T00:02:30;103362.47;;;5.70;100.00
59789;BME280;47353;51.614;5.530;2023-02-11T00:04:56;103360.72;;;5.69;100.00
59789;BME280;47353;51.614;5.530;2023-02-11T00:07:21;103360.69;;;5.77;100.00
59789;BME280;47353;51.614;5.530;2023-02-11T00:09:46;103352.97;;;5.73;100.00
59789;BME280;47353;51.614;5.530;2023-02-11T00:12:12;103367.59;;;5.73;100.00
59789;BME280;47353;51.614;5.530;2023-02-11T00:14:37;103347.38;;;5.66;100.00
59789;BME280;47353;51.614;5.530;2023-02-11T00:17:02;103345.78;;;5.72;100.00
59789;BME280;47353;51.614;5.530;2023-02-11T00:19:28;103348.00;;;5.76;100.00
59789;BME280;47353;51.614;5.530;2023-02-11T00:21:53;103344.94;;;5.71;100.00
59789;BME280;47353;51.614;5.530;2023-02-11T00:24:19;103347.81;;;5.78;99.71
59789;BME280;47353;51.614;5.530;2023-02-11T00:26:44;103343.53;;;5.75;99.86
59789;BME280;47353;51.614;5.530;2023-02-11T00:29:09;103348.16;;;5.75;99.92
59789;BME280;47353;51.614;5.530;2023-02-11T00:31:35;103354.69;;;5.74;100.00
59789;BME280;47353;51.614;5.530;2023-02-11T00:34:00;103346.44;;;5.74;99.69
59789;BME280;47353;51.614;5.530;2023-02-11T00:36:27;103348.53;;;5.72;99.85
59789;BME280;47353;51.614;5.530;2023-02-11T00:38:54;103350.25;;;5.73;99.29
59789;BME280;47353;51.614;5.530;2023-02-11T00:41:20;103339.25;;;5.73;99.35
59789;BME280;47353;51.614;5.530;2023-02-11T00:43:47;103334.31;;;5.68;99.35
59789;BME280;47353;51.614;5.530;2023-02-11T00:46:12;103342.00;;;5.73;99.36
59789;BME280;47353;51.614;5.530;2023-02-11T00:48:38;103333.25;;;5.69;99.77
59789;BME280;47353;51.614;5.530;2023-02-11T00:51:04;103344.75;;;5.73;99.40
59789;BME280;47353;51.614;5.530;2023-02-11T00:53:31;103340.47;;;5.70;99.92
59789;BME280;47353;51.614;5.530;2023-02-11T00:55:56;103345.28;;;5.68;99.64
59789;BME280;47353;51.614;5.530;2023-02-11T00:58:22;103342.19;;;5.71;99.39
59789;BME280;47353;51.614;5.530;2023-02-11T01:00:48;103345.78;;;5.72;99.46
59789;BME280;47353;51.614;5.530;2023-02-11T01:03:13;103337.91;;;5.69;99.14
59789;BME280;47353;51.614;5.530;2023-02-11T01:05:39;103350.78;;;5.68;99.47
59789;BME280;47353;51.614;5.530;2023-02-11T01:08:04;103353.34;;;5.70;99.51
59789;BME280;47353;51.614;5.530;2023-02-11T01:10:30;103341.88;;;5.66;99.41
59789;BME280;47353;51.614;5.530;2023-02-11T01:12:56;103349.56;;;5.71;99.20
59789;BME280;47353;51.614;5.530;2023-02-11T01:15:23;103340.00;;;5.67;98.99
59789;BME280;47353;51.614;5.530;2023-02-11T01:17:48;103355.44;;;5.68;99.07
59789;BME280;47353;51.614;5.530;2023-02-11T01:20:18;103363.47;;;5.69;99.10
59789;BME280;47353;51.614;5.530;2023-02-11T01:22:44;103362.66;;;5.69;99.11
59789;BME280;47353;51.614;5.530;2023-02-11T01:25:09;103364.91;;;5.65;99.33
59789;BME280;47353;51.614;5.530;2023-02-11T01:27:35;103367.66;;;5.65;99.28
59789;BME280;47353;51.614;5.530;2023-02-11T01:30:02;103357.72;;;5.64;99.21
59789;BME280;47353;51.614;5.530;2023-02-11T01:32:27;103369.53;;;5.65;99.46
59789;BME280;47353;51.614;5.530;2023-02-11T01:34:53;103347.72;;;5.63;99.49
59789;BME280;47353;51.614;5.530;2023-02-11T01:37:19;103350.47;;;5.63;99.48
59789;BME280;47353;51.614;5.530;2023-02-11T01:39:44;103327.19;;;5.59;99.26
59789;BME280;47353;51.614;5.530;2023-02-11T01:42:19;103323.50;;;5.67;99.11
59789;BME280;47353;51.614;5.530;2023-02-11T01:44:45;103327.31;;;5.66;98.95
59789;BME280;47353;51.614;5.530;2023-02-11T01:47:13;103310.50;;;5.61;99.44
59789;BME280;47353;51.614;5.530;2023-02-11T01:52:38;103316.88;;;5.61;99.12
59789;BME280;47353;51.614;5.530;2023-02-11T01:55:08;103309.19;;;5.57;99.63
59789;BME280;47353;51.614;5.530;2023-02-11T01:57:55;103312.75;;;5.57;99.56
59789;BME280;47353;51.614;5.530;2023-02-11T02:00:25;103313.31;;;5.53;99.68
59789;BME280;47353;51.614;5.530;2023-02-11T02:02:59;103311.06;;;5.56;99.60
59789;BME280;47353;51.614;5.530;2023-02-11T02:05:42;103308.69;;;5.53;99.54
59789;BME280;47353;51.614;5.530;2023-02-11T02:10:59;103309.78;;;5.44;99.88
59789;BME280;47353;51.614;5.530;2023-02-11T02:13:26;103314.06;;;5.47;100.00
59789;BME280;47353;51.614;5.530;2023-02-11T02:16:00;103326.44;;;5.43;100.00
59789;BME280;47353;51.614;5.530;2023-02-11T02:25:17;103326.63;;;5.41;100.00
59789;BME280;47353;51.614;5.530;2023-02-11T02:27:49;103312.03;;;5.41;100.00
59789;BME280;47353;51.614;5.530;2023-02-11T02:36:01;103318.88;;;5.45;100.00
59789;BME280;47353;51.614;5.530;2023-02-11T02:38:33;103313.75;;;5.42;100.00
59789;BME280;47353;51.614;5.530;2023-02-11T02:41:06;103319.22;;;5.42;100.00
59789;BME280;47353;51.614;5.530;2023-02-11T02:43:36;103314.78;;;5.41;100.00
59789;BME280;47353;51.614;5.530;2023-02-11T02:46:17;103300.69;;;5.44;100.00
59789;BME280;47353;51.614;5.530;2023-02-11T02:48:44;103305.69;;;5.40;100.00
59789;BME280;47353;51.614;5.530;2023-02-11T03:05:58;103317.91;;;5.38;100.00
59789;BME280;47353;51.614;5.530;2023-02-11T03:08:58;103316.78;;;5.47;100.00
59789;BME280;47353;51.614;5.530;2023-02-11T03:11:26;103311.72;;;5.36;100.00
59789;BME280;47353;51.614;5.530;2023-02-11T03:13:53;103301.78;;;5.35;100.00
59789;BME280;47353;51.614;5.530;2023-02-11T03:16:25;103296.66;;;5.32;100.00
59789;BME280;47353;51.614;5.530;2023-02-11T03:18:56;103303.34;;;5.29;100.00
59789;BME280;47353;51.614;5.530;2023-02-11T03:21:24;103296.84;;;5.30;100.00
59789;BME280;47353;51.614;5.530;2023-02-11T03:23:53;103288.28;;;5.25;100.00
59789;BME280;47353;51.614;5.530;2023-02-11T03:29:01;103290.00;;;5.26;100.00
59789;BME280;47353;51.614;5.530;2023-02-11T03:37:07;103307.38;;;5.18;100.00
59789;BME280;47353;51.614;5.530;2023-02-11T03:39:38;103307.56;;;5.17;100.00
59789;BME280;47353;51.614;5.530;2023-02-11T03:42:05;103304.63;;;5.18;100.00
59789;BME280;47353;51.614;5.530;2023-02-11T03:44:37;103305.00;;;5.15;100.00
59789;BME280;47353;51.614;5.530;2023-02-11T03:47:06;103305.00;;;5.15;100.00
59789;BME280;47353;51.614;5.530;2023-02-11T03:49:35;103303.63;;;5.20;100.00
59789;BME280;47353;51.614;5.530;2023-02-11T03:52:04;103297.44;;;5.18;100.00
59789;BME280;47353;51.614;5.530;2023-02-11T03:54:32;103309.47;;;5.17;100.00
59789;BME280;47353;51.614;5.530;2023-02-11T03:56:59;103291.97;;;5.18;100.00
59789;BME280;47353;51.614;5.530;2023-02-11T03:59:25;103289.53;;;5.23;100.00
59789;BME280;47353;51.614;5.530;2023-02-11T04:01:51;103279.38;;;5.23;100.00
59789;BME280;47353;51.614;5.530;2023-02-11T04:04:17;103288.84;;;5.21;100.00
59789;BME280;47353;51.614;5.530;2023-02-11T04:06:43;103288.34;;;5.17;100.00
59789;BME280;47353;51.614;5.530;2023-02-11T04:09:09;103274.50;;;5.10;100.00
59789;BME280;47353;51.614;5.530;2023-02-11T04:11:35;103267.25;;;5.18;100.00
59789;BME280;47353;51.614;5.530;2023-02-11T04:14:00;103264.88;;;5.14;100.00
59789;BME280;47353;51.614;5.530;2023-02-11T04:16:26;103265.38;;;5.18;100.00
59789;BME280;47353;51.614;5.530;2023-02-11T04:18:51;103255.41;;;5.17;100.00
59789;BME280;47353;51.614;5.530;2023-02-11T04:21:17;103259.88;;;5.18;100.00
59789;BME280;47353;51.614;5.530;2023-02-11T04:23:42;103252.28;;;5.20;100.00
59789;BME280;47353;51.614;5.530;2023-02-11T04:26:08;103254.44;;;5.10;100.00
59789;BME280;47353;51.614;5.530;2023-02-11T04:28:33;103260.44;;;5.13;100.00
59789;BME280;47353;51.614;5.530;2023-02-11T04:31:00;103257.84;;;5.12;100.00
59789;BME280;47353;51.614;5.530;2023-02-11T04:33:25;103263.31;;;5.12;100.00
59789;BME280;47353;51.614;5.530;2023-02-11T04:35:51;103259.88;;;5.18;100.00
59789;BME280;47353;51.614;5.530;2023-02-11T04:38:16;103281.84;;;5.18;100.00
59789;BME280;47353;51.614;5.530;2023-02-11T04:40:42;103279.09;;;5.18;100.00
59789;BME280;47353;51.614;5.530;2023-02-11T04:43:07;103283.72;;;5.18;100.00
59789;BME280;47353;51.614;5.530;2023-02-11T04:45:32;103283.53;;;5.19;100.00
59789;BME280;47353;51.614;5.530;2023-02-11T04:47:58;103281.84;;;5.18;100.00
59789;BME280;47353;51.614;5.530;2023-02-11T04:50:23;103290.53;;;5.22;100.00
59789;BME280;47353;51.614;5.530;2023-02-11T04:52:49;103281.94;;;5.25;100.00
59789;BME280;47353;51.614;5.530;2023-02-11T04:55:14;103291.41;;;5.22;100.00
59789;BME280;47353;51.614;5.530;2023-02-11T04:57:40;103299.47;;;5.24;100.00
59789;BME280;47353;51.614;5.530;2023-02-11T05:00:05;103287.63;;;5.23;100.00
59789;BME280;47353;51.614;5.530;2023-02-11T05:02:31;103297.03;;;5.29;100.00
59789;BME280;47353;51.614;5.530;2023-02-11T05:04:57;103284.31;;;5.28;100.00
59789;BME280;47353;51.614;5.530;2023-02-11T05:07:22;103289.44;;;5.31;100.00
59789;BME280;47353;51.614;5.530;2023-02-11T05:09:48;103283.44;;;5.35;100.00
59789;BME280;47353;51.614;5.530;2023-02-11T05:12:13;103286.00;;;5.37;100.00
59789;BME280;47353;51.614;5.530;2023-02-11T05:14:39;103300.06;;;5.34;100.00
59789;BME280;47353;51.614;5.530;2023-02-11T05:17:05;103282.88;;;5.40;100.00
59789;BME280;47353;51.614;5.530;2023-02-11T05:19:30;103289.03;;;5.42;100.00
59789;BME280;47353;51.614;5.530;2023-02-11T05:21:56;103284.56;;;5.41;100.00
59789;BME280;47353;51.614;5.530;2023-02-11T05:24:21;103277.19;;;5.41;100.00
59789;BME280;47353;51.614;5.530;2023-02-11T05:26:47;103273.78;;;5.39;100.00
59789;BME280;47353;51.614;5.530;2023-02-11T05:29:12;103278.03;;;5.42;100.00
59789;BME280;47353;51.614;5.530;2023-02-11T05:31:37;103286.09;;;5.43;100.00
59789;BME280;47353;51.614;5.530;2023-02-11T05:34:03;103272.34;;;5.43;100.00
59789;BME280;47353;51.614;5.530;2023-02-11T05:36:29;103266.41;;;5.40;100.00
59789;BME280;47353;51.614;5.530;2023-02-11T05:38:54;103262.13;;;5.37;100.00
59789;BME280;47353;51.614;5.530;2023-02-11T05:41:20;103273.59;;;5.41;100.00
59789;BME280;47353;51.614;5.530;2023-02-11T05:43:47;103265.03;;;5.36;100.00
59789;BME280;47353;51.614;5.530;2023-02-11T05:46:15;103267.41;;;5.39;100.00
59789;BME280;47353;51.614;5.530;2023-02-11T05:48:41;103262.97;;;5.38;100.00
59789;BME280;47353;51.614;5.530;2023-02-11T05:51:06;103269.69;;;5.35;100.00
59789;BME280;47353;51.614;5.530;2023-02-11T05:53:31;103273.97;;;5.38;100.00
59789;BME280;47353;51.614;5.530;2023-02-11T05:55:57;103283.59;;;5.34;100.00
59789;BME280;47353;51.614;5.530;2023-02-11T05:58:22;103281.88;;;5.33;100.00
59789;BME280;47353;51.614;5.530;2023-02-11T06:00:47;103275.53;;;5.32;100.00
59789;BME280;47353;51.614;5.530;2023-02-11T06:03:13;103283.78;;;5.32;100.00
59789;BME280;47353;51.614;5.530;2023-02-11T06:05:38;103277.44;;;5.32;100.00
59789;BME280;47353;51.614;5.530;2023-02-11T06:08:04;103266.66;;;5.30;100.00
59789;BME280;47353;51.614;5.530;2023-02-11T06:10:29;103276.41;;;5.33;100.00
59789;BME280;47353;51.614;5.530;2023-02-11T06:12:55;103280.00;;;5.33;100.00
59789;BME280;47353;51.614;5.530;2023-02-11T06:15:20;103273.84;;;5.31;100.00
59789;BME280;47353;51.614;5.530;2023-02-11T06:17:48;103271.28;;;5.30;100.00
59789;BME280;47353;51.614;5.530;2023-02-11T06:20:13;103282.56;;;5.35;100.00
59789;BME280;47353;51.614;5.530;2023-02-11T06:22:38;103282.56;;;5.35;100.00
59789;BME280;47353;51.614;5.530;2023-02-11T06:25:04;103282.56;;;5.35;100.00
59789;BME280;47353;51.614;5.530;2023-02-11T06:27:30;103285.31;;;5.35;100.00
59789;BME280;47353;51.614;5.530;2023-02-11T06:29:55;103291.66;;;5.35;100.00
59789;BME280;47353;51.614;5.530;2023-02-11T06:32:21;103292.13;;;5.39;100.00
59789;BME280;47353;51.614;5.530;2023-02-11T06:34:46;103292.13;;;5.39;100.00
59789;BME280;47353;51.614;5.530;2023-02-11T06:37:11;103282.19;;;5.38;100.00
59789;BME280;47353;51.614;5.530;2023-02-11T06:39:37;103289.03;;;5.42;100.00
59789;BME280;47353;51.614;5.530;2023-02-11T06:42:02;103283.53;;;5.42;100.00
59789;BME280;47353;51.614;5.530;2023-02-11T06:44:28;103292.63;;;5.42;100.00
59789;BME280;47353;51.614;5.530;2023-02-11T06:46:53;103299.81;;;5.43;100.00
59789;BME280;47353;51.614;5.530;2023-02-11T06:49:19;103300.00;;;5.42;100.00
59789;BME280;47353;51.614;5.530;2023-02-11T06:51:44;103297.94;;;5.44;100.00
59789;BME280;47353;51.614;5.530;2023-02-11T06:54:11;103291.31;;;5.38;100.00
59789;BME280;47353;51.614;5.530;2023-02-11T06:56:39;103298.13;;;5.42;100.00
59789;BME280;47353;51.614;5.530;2023-02-11T06:59:04;103305.13;;;5.45;100.00
59789;BME280;47353;51.614;5.530;2023-02-11T07:01:30;103296.72;;;5.46;100.00
59789;BME280;47353;51.614;5.530;2023-02-11T07:03:55;103301.38;;;5.46;100.00
59789;BME280;47353;51.614;5.530;2023-02-11T07:06:22;103302.19;;;5.46;100.00
59789;BME280;47353;51.614;5.530;2023-02-11T07:08:50;103302.69;;;5.50;100.00
59789;BME280;47353;51.614;5.530;2023-02-11T07:11:18;103319.19;;;5.50;100.00
59789;BME280;47353;51.614;5.530;2023-02-11T07:13:45;103306.50;;;5.49;100.00
59789;BME280;47353;51.614;5.530;2023-02-11T07:16:13;103308.19;;;5.50;100.00
59789;BME280;47353;51.614;5.530;2023-02-11T07:18:39;103309.88;;;5.51;100.00
59789;BME280;47353;51.614;5.530;2023-02-11T07:21:07;103309.69;;;5.52;100.00
59789;BME280;47353;51.614;5.530;2023-02-11T07:23:34;103317.59;;;5.55;100.00
59789;BME280;47353;51.614;5.530;2023-02-11T07:26:07;103319.97;;;5.58;100.00
59789;BME280;47353;51.614;5.530;2023-02-11T07:28:34;103323.75;;;5.57;100.00
59789;BME280;47353;51.614;5.530;2023-02-11T07:31:11;103317.88;;;5.60;100.00
59789;BME280;47353;51.614;5.530;2023-02-11T07:33:38;103324.25;;;5.61;100.00
59789;BME280;47353;51.614;5.530;2023-02-11T07:36:05;103323.19;;;5.62;100.00
59789;BME280;47353;51.614;5.530;2023-02-11T07:38:32;103330.41;;;5.63;100.00
59789;BME280;47353;51.614;5.530;2023-02-11T07:41:09;103336.38;;;5.66;100.00
59789;BME280;47353;51.614;5.530;2023-02-11T07:43:36;103333.81;;;5.65;100.00
59789;BME280;47353;51.614;5.530;2023-02-11T07:46:04;103336.19;;;5.68;100.00
59789;BME280;47353;51.614;5.530;2023-02-11T07:48:29;103341.50;;;5.69;100.00
59789;BME280;47353;51.614;5.530;2023-02-11T07:50:55;103340.13;;;5.73;100.00
59789;BME280;47353;51.614;5.530;2023-02-11T07:53:21;103344.56;;;5.74;100.00
59789;BME280;47353;51.614;5.530;2023-02-11T07:55:46;103340.13;;;5.73;100.00
59789;BME280;47353;51.614;5.530;2023-02-11T07:58:11;103359.66;;;5.78;100.00
59789;BME280;47353;51.614;5.530;2023-02-11T08:00:37;103359.97;;;5.83;100.00
59789;BME280;47353;51.614;5.530;2023-02-11T08:03:02;103361.03;;;5.82;100.00
59789;BME280;47353;51.614;5.530;2023-02-11T08:05:32;103354.47;;;5.83;100.00
59789;BME280;47353;51.614;5.530;2023-02-11T08:07:57;103346.56;;;5.80;100.00
59789;BME280;47353;51.614;5.530;2023-02-11T08:10:23;103355.34;;;5.84;100.00
59789;BME280;47353;51.614;5.530;2023-02-11T08:12:48;103361.13;;;5.89;100.00
59789;BME280;47353;51.614;5.530;2023-02-11T08:15:13;103353.53;;;5.91;100.00
59789;BME280;47353;51.614;5.530;2023-02-11T08:17:39;103354.41;;;5.91;100.00
59789;BME280;47353;51.614;5.530;2023-02-11T08:20:05;103356.47;;;5.89;100.00
59789;BME280;47353;51.614;5.530;2023-02-11T08:22:31;103361.22;;;5.95;100.00
59789;BME280;47353;51.614;5.530;2023-02-11T08:24:57;103355.28;;;5.92;100.00
59789;BME280;47353;51.614;5.530;2023-02-11T08:27:23;103356.59;;;5.96;100.00
59789;BME280;47353;51.614;5.530;2023-02-11T08:29:51;103364.28;;;6.00;100.00
59789;BME280;47353;51.614;5.530;2023-02-11T08:32:16;103371.31;;;6.03;100.00
59789;BME280;47353;51.614;5.530;2023-02-11T08:34:42;103369.59;;;6.02;100.00
59789;BME280;47353;51.614;5.530;2023-02-11T08:37:07;103371.97;;;6.05;100.00
59789;BME280;47353;51.614;5.530;2023-02-11T08:39:33;103374.72;;;6.05;100.00
59789;BME280;47353;51.614;5.530;2023-02-11T08:41:58;103369.72;;;6.08;100.00
59789;BME280;47353;51.614;5.530;2023-02-11T08:44:24;103369.16;;;6.13;100.00
59789;BME280;47353;51.614;5.530;2023-02-11T08:46:50;103363.66;;;6.13;100.00
59789;BME280;47353;51.614;5.530;2023-02-11T08:49:16;103368.78;;;6.16;100.00
59789;BME280;47353;51.614;5.530;2023-02-11T08:51:42;103363.97;;;6.18;100.00
59789;BME280;47353;51.614;5.530;2023-02-11T08:54:07;103362.06;;;6.18;100.00
59789;BME280;47353;51.614;5.530;2023-02-11T08:56:35;103368.03;;;6.22;100.00
59789;BME280;47353;51.614;5.530;2023-02-11T08:59:00;103377.63;;;6.26;100.00
59789;BME280;47353;51.614;5.530;2023-02-11T09:01:28;103370.97;;;6.20;100.00
59789;BME280;47353;51.614;5.530;2023-02-11T09:03:54;103376.78;;;6.25;100.00
59789;BME280;47353;51.614;5.530;2023-02-11T09:06:21;103375.53;;;6.28;100.00
59789;BME280;47353;51.614;5.530;2023-02-11T09:08:50;103379.63;;;6.32;100.00
59789;BME280;47353;51.614;5.530;2023-02-11T09:11:18;103373.94;;;6.33;100.00
59789;BME280;47353;51.614;5.530;2023-02-11T09:13:44;103377.19;;;6.37;100.00
59789;BME280;47353;51.614;5.530;2023-02-11T09:16:21;103382.13;;;6.41;100.00
59789;BME280;47353;51.614;5.530;2023-02-11T09:18:47;103384.13;;;6.47;100.00
59789;BME280;47353;51.614;5.530;2023-02-11T09:21:14;103386.50;;;6.50;100.00
59789;BME280;47353;51.614;5.530;2023-02-11T09:23:40;103385.44;;;6.51;100.00
59789;BME280;47353;51.614;5.530;2023-02-11T09:26:19;103391.81;;;6.52;100.00
59789;BME280;47353;51.614;5.530;2023-02-11T09:28:46;103404.13;;;6.56;100.00
59789;BME280;47353;51.614;5.530;2023-02-11T09:31:14;103405.81;;;6.57;100.00
59789;BME280;47353;51.614;5.530;2023-02-11T09:33:41;103395.88;;;6.56;100.00
59789;BME280;47353;51.614;5.530;2023-02-11T09:36:13;103402.25;;;6.56;100.00
59789;BME280;47353;51.614;5.530;2023-02-11T09:38:39;103408.88;;;6.62;100.00
59789;BME280;47353;51.614;5.530;2023-02-11T09:41:04;103403.94;;;6.57;100.00
59789;BME280;47353;51.614;5.530;2023-02-11T09:43:40;103409.34;;;6.65;100.00
59789;BME280;47353;51.614;5.530;2023-02-11T09:46:12;103415.34;;;6.69;100.00
59789;BME280;47353;51.614;5.530;2023-02-11T09:48:40;103408.97;;;6.68;100.00
59789;BME280;47353;51.614;5.530;2023-02-11T09:51:16;103410.88;;;6.68;100.00
59789;BME280;47353;51.614;5.530;2023-02-11T09:53:44;103424.25;;;6.71;100.00
59789;BME280;47353;51.614;5.530;2023-02-11T09:56:12;103415.81;;;6.72;100.00
59789;BME280;47353;51.614;5.530;2023-02-11T09:58:40;103412.84;;;6.74;100.00
59789;BME280;47353;51.614;5.530;2023-02-11T10:06:54;103418.94;;;6.84;100.00
59789;BME280;47353;51.614;5.530;2023-02-11T10:18:22;103442.31;;;7.03;100.00
59789;BME280;47353;51.614;5.530;2023-02-11T10:20:40;103444.47;;;7.07;100.00
59789;BME280;47353;51.614;5.530;2023-02-11T10:23:21;103453.03;;;7.12;100.00
59789;BME280;47353;51.614;5.530;2023-02-11T10:25:53;103454.44;;;7.08;100.00
59789;BME280;47353;51.614;5.530;2023-02-11T10:28:23;103460.81;;;7.09;100.00
59789;BME280;47353;51.614;5.530;2023-02-11T10:31:05;103448.09;;;7.08;100.00
59789;BME280;47353;51.614;5.530;2023-02-11T10:33:39;103462.13;;;7.13;100.00
59789;BME280;47353;51.614;5.530;2023-02-11T10:36:10;103469.81;;;7.17;100.00
59789;BME280;47353;51.614;5.530;2023-02-11T10:38:36;103471.06;;;7.15;100.00
59789;BME280;47353;51.614;5.530;2023-02-11T10:41:02;103477.06;;;7.18;100.00
59789;BME280;47353;51.614;5.530;2023-02-11T10:43:29;103466.81;;;7.12;100.00
59789;BME280;47353;51.614;5.530;2023-02-11T10:45:56;103477.88;;;7.19;100.00
59789;BME280;47353;51.614;5.530;2023-02-11T10:48:46;103473.06;;;7.21;100.00
59789;BME280;47353;51.614;5.530;2023-02-11T10:51:21;103473.72;;;7.23;100.00
59789;BME280;47353;51.614;5.530;2023-02-11T10:56:30;103491.75;;;7.25;100.00
59789;BME280;47353;51.614;5.530;2023-02-11T10:59:01;103475.63;;;7.22;100.00
59789;BME280;47353;51.614;5.530;2023-02-11T11:01:44;103481.50;;;7.34;100.00
59789;BME280;47353;51.614;5.530;2023-02-11T11:06:55;103477.78;;;7.41;100.00
59789;BME280;47353;51.614;5.530;2023-02-11T11:09:29;103480.16;;;7.44;100.00
59789;BME280;47353;51.614;5.530;2023-02-11T11:11:55;103488.31;;;7.52;100.00
59789;BME280;47353;51.614;5.530;2023-02-11T11:14:22;103485.78;;;7.51;100.00
59789;BME280;47353;51.614;5.530;2023-02-11T11:16:53;103487.94;;;7.55;100.00
59789;BME280;47353;51.614;5.530;2023-02-11T11:19:22;103487.75;;;7.57;100.00
59789;BME280;47353;51.614;5.530;2023-02-11T11:21:50;103493.78;;;7.67;100.00
59789;BME280;47353;51.614;5.530;2023-02-11T11:24:28;103490.94;;;7.75;100.00
59789;BME280;47353;51.614;5.530;2023-02-11T11:26:59;103491.22;;;7.80;100.00
59789;BME280;47353;51.614;5.530;2023-02-11T11:29:34;103493.19;;;7.86;100.00
59789;BME280;47353;51.614;5.530;2023-02-11T11:32:10;103499.56;;;7.86;100.00
59789;BME280;47353;51.614;5.530;2023-02-11T11:34:39;103500.50;;;7.79;100.00
59789;BME280;47353;51.614;5.530;2023-02-11T11:37:28;103502.63;;;7.77;100.00
59789;BME280;47353;51.614;5.530;2023-02-11T11:42:39;103501.75;;;7.76;100.00
59789;BME280;47353;51.614;5.530;2023-02-11T11:47:58;103493.19;;;7.86;100.00
59789;BME280;47353;51.614;5.530;2023-02-11T11:50:28;103497.06;;;7.91;100.00
59789;BME280;47353;51.614;5.530;2023-02-11T11:52:59;103493.72;;;7.96;100.00
59789;BME280;47353;51.614;5.530;2023-02-11T11:55:51;103491.44;;;7.99;100.00
59789;BME280;47353;51.614;5.530;2023-02-11T11:58:22;103484.00;;;8.00;100.00
59789;BME280;47353;51.614;5.530;2023-02-11T12:07:12;103496.41;;;8.25;100.00
59789;BME280;47353;51.614;5.530;2023-02-11T12:12:59;103483.72;;;8.30;100.00
59789;BME280;47353;51.614;5.530;2023-02-11T12:18:43;103472.75;;;8.37;100.00
59789;BME280;47353;51.614;5.530;2023-02-11T12:21:33;103471.47;;;8.39;100.00
59789;BME280;47353;51.614;5.530;2023-02-11T12:26:56;103466.09;;;8.53;100.00
59789;BME280;47353;51.614;5.530;2023-02-11T12:39:50;103446.97;;;8.79;100.00
59789;BME280;47353;51.614;5.530;2023-02-11T12:48:04;103436.72;;;9.54;96.58
59789;BME280;47353;51.614;5.530;2023-02-11T12:56:00;103448.31;;;9.96;93.00
59789;BME280;47353;51.614;5.530;2023-02-11T12:58:29;103447.72;;;9.94;93.12
59789;BME280;47353;51.614;5.530;2023-02-11T13:01:03;103448.94;;;9.85;92.86
59789;BME280;47353;51.614;5.530;2023-02-11T13:03:38;103448.06;;;9.72;93.27
59789;BME280;47353;51.614;5.530;2023-02-11T13:06:09;103442.50;;;9.59;94.13
59789;BME280;47353;51.614;5.530;2023-02-11T13:08:46;103444.16;;;9.53;94.29
59789;BME280;47353;51.614;5.530;2023-02-11T13:11:18;103447.75;;;9.47;94.29
59789;BME280;47353;51.614;5.530;2023-02-11T13:30:21;103446.63;;;9.89;94.80
59789;BME280;47353;51.614;5.530;2023-02-11T13:35:38;103444.56;;;10.37;92.06
59789;BME280;47353;51.614;5.530;2023-02-11T13:40:37;103436.91;;;10.71;88.99
59789;BME280;47353;51.614;5.530;2023-02-11T13:43:06;103445.00;;;10.73;87.49
59789;BME280;47353;51.614;5.530;2023-02-11T13:45:44;103445.00;;;10.73;88.01
59789;BME280;47353;51.614;5.530;2023-02-11T13:48:26;103443.06;;;10.80;87.80
59789;BME280;47353;51.614;5.530;2023-02-11T13:51:02;103442.41;;;11.04;86.05
59789;BME280;47353;51.614;5.530;2023-02-11T13:53:28;103439.78;;;11.22;85.91
59789;BME280;47353;51.614;5.530;2023-02-11T13:56:27;103445.13;;;11.17;85.63
59789;BME280;47353;51.614;5.530;2023-02-11T13:58:53;103443.28;;;10.85;85.37
59789;BME280;47353;51.614;5.530;2023-02-11T14:01:39;103446.28;;;10.70;86.92
59789;BME280;47353;51.614;5.530;2023-02-11T14:04:24;103453.94;;;10.55;87.76
59789;BME280;47353;51.614;5.530;2023-02-11T14:07:31;103452.25;;;10.54;88.04
59789;BME280;47353;51.614;5.530;2023-02-11T14:13:25;103456.09;;;10.47;88.39
59789;BME280;47353;51.614;5.530;2023-02-11T14:16:13;103451.63;;;10.33;88.87
59789;BME280;47353;51.614;5.530;2023-02-11T14:23:45;103450.09;;;10.10;89.14
59789;BME280;47353;51.614;5.530;2023-02-11T14:28:42;103460.69;;;9.94;89.88
59789;BME280;47353;51.614;5.530;2023-02-11T14:31:24;103459.41;;;9.96;90.36
59789;BME280;47353;51.614;5.530;2023-02-11T14:39:07;103450.06;;;9.97;90.49
59789;BME280;47353;51.614;5.530;2023-02-11T14:41:40;103448.34;;;10.03;91.24
59789;BME280;47353;51.614;5.530;2023-02-11T14:44:21;103432.66;;;10.10;90.58
59789;BME280;47353;51.614;5.530;2023-02-11T14:46:49;103452.03;;;10.23;90.26
59789;BME280;47353;51.614;5.530;2023-02-11T14:49:32;103446.50;;;10.23;89.77
59789;BME280;47353;51.614;5.530;2023-02-11T14:52:06;103449.03;;;10.18;89.72
59789;BME280;47353;51.614;5.530;2023-02-11T14:54:39;103459.69;;;10.08;89.78
59789;BME280;47353;51.614;5.530;2023-02-11T14:57:14;103466.66;;;10.04;89.82
59789;BME280;47353;51.614;5.530;2023-02-11T14:59:58;103460.03;;;9.98;90.08
59789;BME280;47353;51.614;5.530;2023-02-11T15:02:33;103460.28;;;10.03;91.00
59789;BME280;47353;51.614;5.530;2023-02-11T15:07:53;103466.44;;;10.05;90.49
59789;BME280;47353;51.614;5.530;2023-02-11T15:10:40;103462.59;;;10.00;91.21
59789;BME280;47353;51.614;5.530;2023-02-11T15:13:06;103470.88;;;9.93;90.86
59789;BME280;47353;51.614;5.530;2023-02-11T15:15:32;103463.41;;;9.81;91.32
59789;BME280;47353;51.614;5.530;2023-02-11T15:18:02;103472.31;;;9.76;91.34
59789;BME280;47353;51.614;5.530;2023-02-11T15:20:30;103474.44;;;9.68;91.83
59789;BME280;47353;51.614;5.530;2023-02-11T15:22:59;103474.84;;;9.65;92.45
59789;BME280;47353;51.614;5.530;2023-02-11T15:25:25;103481.41;;;9.64;92.88